• Join FlightAware (Why Join?)
  • Login
  • US Flag 
01:07PM EDT


 

Airport Tracker/Info


-or-


 

Live Flight TrackerFlight Track Log ✈ N231CW ✈ 04-Jun-2013 ✈ KFTW - KSAT

Flight Track Log - Related Links

Times and Time Zones

All times are in EDT time to prevent confusion due to time zone crossing. See the N231CW flight status page for this flight to view local times or setup timezone preferences in your user account.

Time Position Orientation Groundspeed Altitude Reporting Facility
EDT Latitude Longitude Course Direction KTS MPH feet Rate Location/Type
07:17PM 31.2050 -97.9336 196° South 185 213 14,500  Level Houston Center
07:18PM 31.1564 -97.9508 197° South 183 211 14,500  Level Houston Center
07:19PM 31.1064 -97.9692 197° South 186 214 14,500  Level Houston Center
07:20PM 31.0483 -97.9892 196° South 185 213 14,500  Level Houston Center
07:21PM 31.0006 -98.0075 198° South 181 208 14,500  Level Houston Center
07:22PM 30.9103 -98.0152 196° South  Level Estimated
07:22PM 30.9533 -98.0256 198° South 179 206 14,500  Level Houston Center
07:23PM 30.9044 -98.0425 197° South 180 207 14,500  Level Houston Center
07:24PM 30.8561 -98.0594 197° South 180 207 14,500  Level Houston Center
07:25PM 30.8072 -98.0769 197° South 181 208 14,500 -180 Level Houston Center
07:26PM 30.7572 -98.0939 196° South 184 212 14,200 -600 Descending Houston Center
07:27PM 30.6942 -98.1175 198° South 197 227 13,300 -780 Descending Houston Center
07:28PM 30.6358 -98.1378 197° South 211 243 12,600 -720 Descending Houston Center
07:29PM 30.5797 -98.1572 197° South 210 242 11,900 -660 Descending Houston Center
07:30PM 30.5242 -98.1769 197° South 207 238 11,300 -720 Descending Houston Center
07:31PM 30.4681 -98.1972 197° South 208 239 10,500 -840 Descending Houston Center
07:32PM 30.4106 -98.2172 197° South 212 244 9,600 -900 Descending Houston Center
07:33PM 30.3547 -98.2361 196° South 210 242 8,700 -900 Descending Houston Center
07:34PM 30.2936 -98.2575 197° South 204 235 7,800 -840 Descending Houston Center
07:35PM 30.2711 -98.2669 200° South 195 224 7,500 -720 Descending Houston Center
07:35PM 30.2403 -98.2769 196° South 188 216 7,100 -660 Descending Houston Center
07:36PM 30.2058 -98.2894 197° South 185 213 6,700 -540 Descending Houston Center
07:37PM 30.1903 -98.2944 196° South 187 215 6,600 -600 Descending Houston Center
07:37PM 30.1611 -98.3044 197° South 183 211 6,200 -720 Descending Houston Center
07:38PM 30.1386 -98.3128 198° South 182 209 5,900 -600 Descending Houston Center
07:38PM 30.1167 -98.3219 200° South 180 207 5,700 -600 Descending Houston Center
07:39PM 30.0911 -98.3292 194° South 179 206 5,300 -540 Descending Houston Center
07:39PM 30.0656 -98.3381 197° South 175 201 5,100 -540 Descending Houston Center
07:40PM 30.0453 -98.3453 197° South 172 198 4,800 -600 Descending Houston Center
07:40PM 30.0208 -98.3531 195° South 168 193 4,500 -720 Descending Houston Center
07:41PM 29.9981 -98.3619 199° South 164 189 4,100 -660 Descending Houston Center
07:41PM 29.9822 -98.3675 197° South 159 183 3,900 -600 Descending Houston Center
07:42PM 29.9569 -98.3756 195° South 155 178 3,500 -600 Descending Houston Center
07:42PM 29.9414 -98.3819 200° South 152 175 3,300 -540 Descending Houston Center
07:43PM 29.9156 -98.3897 195° South 145 167 3,000 -480 Descending Houston Center
07:43PM 29.9089 -98.3933 205° Southwest 138 159 2,900 -120 Descending Houston Center
07:44PM 29.8806 -98.4017 194° South 139 160 2,900  Level Houston Center